createdAt,value
2023-02-12T00:00:52.051Z,-1.97
2023-02-12T00:03:19.189Z,-1.99
2023-02-12T00:05:46.298Z,-1.98
2023-02-12T00:08:14.256Z,-1.86
2023-02-12T00:10:43.285Z,-1.84
2023-02-12T00:13:11.913Z,-1.76
2023-02-12T00:15:42.955Z,-1.62
2023-02-12T00:18:10.514Z,-1.52
2023-02-12T00:20:38.356Z,-1.80
2023-02-12T00:23:06.389Z,-1.89
2023-02-12T00:25:34.200Z,-1.92
2023-02-12T00:28:01.295Z,-1.84
2023-02-12T00:30:28.450Z,-1.66
2023-02-12T00:32:55.758Z,-1.58
2023-02-12T00:35:22.873Z,-1.54
2023-02-12T00:37:50.789Z,-1.60
2023-02-12T00:40:18.091Z,-1.80
2023-02-12T00:42:45.151Z,-1.89
2023-02-12T00:45:12.288Z,-1.93
2023-02-12T00:47:39.404Z,-1.82
2023-02-12T00:50:07.259Z,-1.72
2023-02-12T00:52:34.343Z,-1.77
2023-02-12T00:55:01.526Z,-1.91
2023-02-12T00:57:28.697Z,-1.95
2023-02-12T00:59:56.964Z,-2.00
2023-02-12T01:02:24.258Z,-2.09
2023-02-12T01:04:51.662Z,-2.09
2023-02-12T01:07:18.783Z,-2.09
2023-02-12T01:09:46.137Z,-2.09
2023-02-12T01:12:13.333Z,-2.22
2023-02-12T01:14:40.424Z,-2.04
2023-02-12T01:17:09.642Z,-2.11
2023-02-12T01:19:36.847Z,-2.09
2023-02-12T01:22:04.008Z,-2.11
2023-02-12T01:24:31.162Z,-2.08
2023-02-12T01:26:58.939Z,-2.03
2023-02-12T01:29:26.069Z,-2.07
2023-02-12T01:31:53.258Z,-2.07
2023-02-12T01:34:20.463Z,-2.21
2023-02-12T01:36:47.582Z,-2.22
2023-02-12T01:39:14.698Z,-2.19
2023-02-12T01:41:44.702Z,-2.22
2023-02-12T01:44:22.011Z,-2.28
2023-02-12T01:46:55.709Z,-2.33
2023-02-12T01:49:29.447Z,-2.31
2023-02-12T01:52:04.904Z,-2.26
2023-02-12T01:54:35.875Z,-2.13
2023-02-12T01:57:06.427Z,-1.83
2023-02-12T01:59:36.565Z,-1.91
2023-02-12T02:02:05.066Z,-2.03
2023-02-12T02:04:40.133Z,-2.14
2023-02-12T02:07:09.783Z,-2.10
2023-02-12T02:09:39.085Z,-1.95
2023-02-12T02:12:25.485Z,-1.96
2023-02-12T02:14:56.532Z,-1.94
2023-02-12T02:17:35.470Z,-1.97
2023-02-12T02:20:39.771Z,-2.04
2023-02-12T02:23:28.588Z,-2.16
2023-02-12T02:26:40.262Z,-2.02
2023-02-12T02:29:26.652Z,-1.95
2023-02-12T02:32:16.841Z,-1.85
2023-02-12T02:35:09.181Z,-1.80
2023-02-12T02:37:41.483Z,-1.85
2023-02-12T02:40:14.286Z,-1.78
2023-02-12T02:42:51.415Z,-1.80
2023-02-12T02:45:30.768Z,-1.82
2023-02-12T02:48:06.767Z,-1.97
2023-02-12T02:50:38.746Z,-2.02
2023-02-12T02:53:11.994Z,-2.21
2023-02-12T02:55:46.244Z,-2.26
2023-02-12T02:58:20.748Z,-2.20
2023-02-12T03:01:02.000Z,-2.05
2023-02-12T03:03:44.675Z,-1.99
2023-02-12T03:06:42.085Z,-1.93
2023-02-12T03:09:27.428Z,-1.88
2023-02-12T03:11:59.011Z,-1.97
2023-02-12T03:14:32.251Z,-1.91
2023-02-12T03:17:21.005Z,-2.10
2023-02-12T03:19:58.420Z,-2.05
2023-02-12T03:22:31.473Z,-1.92
2023-02-12T03:25:14.050Z,-1.94
2023-02-12T03:27:57.338Z,-1.89
2023-02-12T03:30:33.974Z,-1.99
2023-02-12T03:33:19.573Z,-2.06
2023-02-12T03:35:57.684Z,-1.98
2023-02-12T03:38:54.862Z,-1.91
2023-02-12T03:41:32.070Z,-1.95
2023-02-12T03:44:15.577Z,-2.02
2023-02-12T03:47:10.165Z,-2.02
2023-02-12T03:49:51.052Z,-2.04
2023-02-12T03:52:18.200Z,-2.02
2023-02-12T03:54:45.941Z,-2.18
2023-02-12T03:57:21.511Z,-2.19
2023-02-12T03:59:49.788Z,-2.16
2023-02-12T04:02:18.925Z,-2.26
2023-02-12T04:04:47.584Z,-2.37
2023-02-12T04:07:16.359Z,-2.53
2023-02-12T04:09:44.016Z,-2.46
2023-02-12T04:12:44.352Z,-2.43
2023-02-12T04:15:20.232Z,-2.47
2023-02-12T04:18:14.928Z,-2.37
2023-02-12T04:20:50.736Z,-2.35
2023-02-12T04:24:05.403Z,-2.38
2023-02-12T04:27:02.063Z,-2.46
2023-02-12T04:30:09.675Z,-2.64
2023-02-12T04:32:41.415Z,-2.61
2023-02-12T04:35:34.857Z,-2.48
2023-02-12T04:38:26.740Z,-2.52
2023-02-12T04:40:53.970Z,-2.38
2023-02-12T04:43:35.349Z,-2.64
2023-02-12T04:46:08.324Z,-2.79
2023-02-12T04:48:39.844Z,-2.80
2023-02-12T04:51:06.943Z,-2.67
2023-02-12T04:53:34.007Z,-2.58
2023-02-12T04:56:01.075Z,-2.49
2023-02-12T04:58:28.161Z,-2.38
2023-02-12T05:00:59.301Z,-2.35
2023-02-12T05:03:26.397Z,-2.33
2023-02-12T05:05:53.648Z,-2.19
2023-02-12T05:08:20.784Z,-2.05
2023-02-12T05:10:47.905Z,-2.05
2023-02-12T05:13:14.962Z,-2.38
2023-02-12T05:15:42.094Z,-2.71
2023-02-12T05:18:09.205Z,-2.86
2023-02-12T05:20:36.290Z,-2.83
2023-02-12T05:23:03.510Z,-2.85
2023-02-12T05:25:31.915Z,-2.84
2023-02-12T05:27:59.133Z,-2.83
2023-02-12T05:30:26.221Z,-2.82
2023-02-12T05:32:53.280Z,-2.83
2023-02-12T05:35:20.461Z,-2.75
2023-02-12T05:37:47.581Z,-2.66
2023-02-12T05:40:15.150Z,-2.61
2023-02-12T05:42:42.233Z,-2.59
2023-02-12T05:45:09.599Z,-2.66
2023-02-12T05:47:36.769Z,-2.87
2023-02-12T05:50:04.080Z,-2.92
2023-02-12T05:52:31.159Z,-2.92
2023-02-12T05:54:58.261Z,-2.92
2023-02-12T05:57:25.424Z,-2.84
2023-02-12T05:59:52.593Z,-2.78
2023-02-12T06:02:19.732Z,-2.83
2023-02-12T06:04:48.573Z,-3.03
2023-02-12T06:07:15.877Z,-3.13
2023-02-12T06:09:42.992Z,-3.28
2023-02-12T06:12:10.066Z,-3.16
2023-02-12T06:14:37.185Z,-3.10
2023-02-12T06:17:04.233Z,-3.03
2023-02-12T06:19:31.331Z,-2.97
2023-02-12T06:21:58.420Z,-2.82
2023-02-12T06:24:25.756Z,-2.70
2023-02-12T06:26:52.850Z,-2.57
2023-02-12T06:29:20.379Z,-2.76
2023-02-12T06:31:48.111Z,-2.90
2023-02-12T06:34:18.875Z,-2.88
2023-02-12T06:36:47.283Z,-2.83
2023-02-12T06:39:16.443Z,-2.73
2023-02-12T06:41:44.576Z,-2.60
2023-02-12T06:44:12.673Z,-2.44
2023-02-12T06:46:39.833Z,-2.36
2023-02-12T06:49:07.151Z,-2.29
2023-02-12T06:51:36.337Z,-2.31
2023-02-12T06:54:03.495Z,-2.27
2023-02-12T06:56:30.554Z,-2.37
2023-02-12T06:59:01.085Z,-2.33
2023-02-12T07:01:29.821Z,-2.19
2023-02-12T07:03:59.987Z,-2.04
2023-02-12T07:06:29.332Z,-1.91
2023-02-12T07:08:56.949Z,-1.86
2023-02-12T07:11:29.322Z,-1.76
2023-02-12T07:13:56.413Z,-1.66
2023-02-12T07:16:23.799Z,-1.54
2023-02-12T07:18:51.129Z,-1.48
2023-02-12T07:21:18.592Z,-1.38
2023-02-12T07:23:51.992Z,-1.27
2023-02-12T07:26:20.766Z,-1.17
2023-02-12T07:28:48.442Z,-0.99
2023-02-12T07:31:18.731Z,-0.86
2023-02-12T07:33:46.685Z,-0.69
2023-02-12T07:36:17.880Z,-0.47
2023-02-12T07:38:45.311Z,-0.39
2023-02-12T07:41:13.629Z,-0.25
2023-02-12T07:43:42.141Z,-0.10
2023-02-12T07:46:17.043Z,0.01
2023-02-12T07:48:45.210Z,0.25
2023-02-12T07:51:16.834Z,0.43
2023-02-12T07:53:43.925Z,0.61
2023-02-12T07:56:14.302Z,0.88
2023-02-12T07:58:44.965Z,1.12
2023-02-12T08:01:22.365Z,1.24
2023-02-12T08:03:50.728Z,1.36
2023-02-12T08:06:22.877Z,1.49
2023-02-12T08:08:58.941Z,1.70
2023-02-12T08:11:27.675Z,1.99
2023-02-12T08:13:55.393Z,2.23
2023-02-12T08:16:24.711Z,2.43
2023-02-12T08:18:52.880Z,2.58
2023-02-12T08:21:22.976Z,2.87
2023-02-12T08:23:50.864Z,3.09
2023-02-12T08:26:19.305Z,3.31
2023-02-12T08:29:04.210Z,3.55
2023-02-12T08:31:34.275Z,3.77
2023-02-12T08:34:01.993Z,4.01
2023-02-12T08:36:38.359Z,4.29
2023-02-12T08:39:07.473Z,4.40
2023-02-12T08:41:35.250Z,4.62
2023-02-12T08:44:04.199Z,4.71
2023-02-12T08:46:36.570Z,4.87
2023-02-12T08:49:06.941Z,5.09
2023-02-12T08:51:36.292Z,5.30
2023-02-12T08:54:06.287Z,5.58
2023-02-12T08:56:35.187Z,5.70
2023-02-12T08:59:04.905Z,5.72
2023-02-12T09:01:34.014Z,5.80
2023-02-12T09:04:01.563Z,5.83
2023-02-12T09:06:28.611Z,6.03
2023-02-12T09:08:55.786Z,6.23
2023-02-12T09:11:30.644Z,6.32
2023-02-12T09:14:01.017Z,6.38
2023-02-12T09:16:29.938Z,6.47
2023-02-12T09:18:57.664Z,6.60
2023-02-12T09:21:25.221Z,6.78
2023-02-12T09:23:53.159Z,6.95
2023-02-12T09:26:23.017Z,7.01
2023-02-12T09:28:51.300Z,7.21
2023-02-12T09:31:26.454Z,7.32
2023-02-12T09:33:57.696Z,7.51
2023-02-12T09:36:25.437Z,7.63
2023-02-12T09:38:54.147Z,7.64
2023-02-12T09:41:23.890Z,7.69
2023-02-12T09:43:58.466Z,7.86
2023-02-12T09:47:00.172Z,7.82
2023-02-12T09:49:45.643Z,8.26
2023-02-12T09:52:30.873Z,8.24
2023-02-12T09:54:58.914Z,8.38
2023-02-12T09:57:31.277Z,8.59
2023-02-12T10:00:02.934Z,8.69
2023-02-12T10:02:34.878Z,8.62
2023-02-12T10:05:02.762Z,8.73
2023-02-12T10:08:04.711Z,8.92
2023-02-12T10:10:43.802Z,9.05
2023-02-12T10:13:40.229Z,9.29
2023-02-12T10:16:16.156Z,9.55
2023-02-12T10:18:51.988Z,9.54
2023-02-12T10:21:42.393Z,9.61
2023-02-12T10:24:18.256Z,9.87
2023-02-12T10:26:49.999Z,9.88
2023-02-12T10:29:28.882Z,10.00
2023-02-12T10:32:07.693Z,10.28
2023-02-12T10:34:37.126Z,10.16
2023-02-12T10:37:16.252Z,10.21
2023-02-12T10:39:50.482Z,10.31
2023-02-12T10:42:45.445Z,10.36
2023-02-12T10:45:25.212Z,10.55
2023-02-12T10:48:01.847Z,10.56
2023-02-12T10:50:41.575Z,10.64
2023-02-12T10:53:17.545Z,10.80
2023-02-12T10:55:44.636Z,11.00
2023-02-12T10:58:21.939Z,11.07
2023-02-12T11:01:00.130Z,11.11
2023-02-12T11:03:34.927Z,11.18
2023-02-12T11:06:20.365Z,11.27
2023-02-12T11:08:47.711Z,11.41
2023-02-12T11:11:27.196Z,11.39
2023-02-12T11:14:03.044Z,11.61
2023-02-12T11:16:33.212Z,11.67
2023-02-12T11:19:06.297Z,11.86
2023-02-12T11:21:34.660Z,11.68
2023-02-12T11:24:32.627Z,11.98
2023-02-12T11:27:21.592Z,11.67
2023-02-12T11:30:12.052Z,12.06
2023-02-12T11:32:39.324Z,12.05
2023-02-12T11:35:13.551Z,12.06
2023-02-12T11:37:43.537Z,12.17
2023-02-12T11:40:22.629Z,12.29
2023-02-12T11:43:02.396Z,12.27
2023-02-12T11:45:52.468Z,12.36
2023-02-12T11:48:24.768Z,12.46
2023-02-12T11:50:54.763Z,12.44
2023-02-12T11:53:34.297Z,12.48
2023-02-12T11:56:10.390Z,12.59
2023-02-12T11:58:38.577Z,12.82
2023-02-12T12:01:12.724Z,12.88
2023-02-12T12:03:58.473Z,12.81
2023-02-12T12:06:37.968Z,12.80
2023-02-12T12:09:26.803Z,12.87
2023-02-12T12:12:09.024Z,12.62
2023-02-12T12:15:15.811Z,12.50
2023-02-12T12:18:07.350Z,12.69
2023-02-12T12:20:45.111Z,12.89
2023-02-12T12:23:34.787Z,12.70
2023-02-12T12:26:09.483Z,12.90
2023-02-12T12:29:11.481Z,12.83
2023-02-12T12:31:42.740Z,12.88
2023-02-12T12:34:11.568Z,12.79
2023-02-12T12:36:57.397Z,13.07
2023-02-12T12:39:27.191Z,12.77
2023-02-12T12:42:28.210Z,12.99
2023-02-12T12:45:10.386Z,12.99
2023-02-12T12:47:49.452Z,13.03
2023-02-12T12:50:35.430Z,12.95
2023-02-12T12:53:24.532Z,12.72
2023-02-12T12:56:24.964Z,13.08
2023-02-12T12:59:27.131Z,13.13
2023-02-12T13:02:28.023Z,13.14
2023-02-12T13:05:13.798Z,13.17
2023-02-12T13:07:46.972Z,13.36
2023-02-12T13:10:23.366Z,13.32
2023-02-12T13:13:06.796Z,13.16
2023-02-12T13:15:46.589Z,13.36
2023-02-12T13:18:50.117Z,13.42
2023-02-12T13:21:35.742Z,13.44
2023-02-12T13:24:04.793Z,13.55
2023-02-12T13:26:43.717Z,13.50
2023-02-12T13:29:20.433Z,13.47
2023-02-12T13:31:57.984Z,13.46
2023-02-12T13:34:29.592Z,13.31
2023-02-12T13:36:58.709Z,13.17
2023-02-12T13:39:52.977Z,13.04
2023-02-12T13:42:47.539Z,13.27
2023-02-12T13:45:36.675Z,13.26
2023-02-12T13:48:35.189Z,13.32
2023-02-12T13:51:14.233Z,13.27
2023-02-12T13:53:47.135Z,13.30
2023-02-12T13:56:34.907Z,13.17
2023-02-12T13:59:02.311Z,12.99
2023-02-12T14:01:49.245Z,13.10
2023-02-12T14:04:37.628Z,13.04
2023-02-12T14:07:07.731Z,12.96
2023-02-12T14:09:49.792Z,13.00
2023-02-12T14:12:30.391Z,12.79
2023-02-12T14:15:09.754Z,13.00
2023-02-12T14:17:36.858Z,12.92
2023-02-12T14:20:06.833Z,12.81
2023-02-12T14:22:33.925Z,12.79
2023-02-12T14:25:21.750Z,12.85
2023-02-12T14:27:52.667Z,12.75
2023-02-12T14:30:39.024Z,12.81
2023-02-12T14:33:08.269Z,12.85
2023-02-12T14:35:36.801Z,12.76
2023-02-12T14:38:47.764Z,12.71
2023-02-12T14:41:37.341Z,12.68
2023-02-12T14:44:29.404Z,12.70
2023-02-12T14:46:58.838Z,12.53
2023-02-12T14:49:27.586Z,12.64
2023-02-12T14:52:07.594Z,12.74
2023-02-12T14:54:41.403Z,12.72
2023-02-12T14:57:19.260Z,12.87
2023-02-12T14:59:48.451Z,12.97
2023-02-12T15:02:27.822Z,13.27
2023-02-12T15:05:01.376Z,13.26
2023-02-12T15:07:41.033Z,13.15
2023-02-12T15:10:19.535Z,13.60
2023-02-12T15:13:16.065Z,13.78
2023-02-12T15:15:50.944Z,13.64
2023-02-12T15:18:28.196Z,13.82
2023-02-12T15:21:20.717Z,13.53
2023-02-12T15:24:00.425Z,13.13
2023-02-12T15:26:29.313Z,13.26
2023-02-12T15:28:56.455Z,13.15
2023-02-12T15:31:29.258Z,12.83
2023-02-12T15:33:59.197Z,12.61
2023-02-12T15:36:29.406Z,12.07
2023-02-12T15:39:01.531Z,11.97
2023-02-12T15:41:36.846Z,11.82
2023-02-12T15:44:31.206Z,11.51
2023-02-12T15:47:01.025Z,11.42
2023-02-12T15:49:33.876Z,11.28
2023-02-12T15:52:07.191Z,11.26
2023-02-12T15:54:35.386Z,11.01
2023-02-12T15:57:10.261Z,10.71
2023-02-12T15:59:37.897Z,10.78
2023-02-12T16:02:18.588Z,10.61
2023-02-12T16:04:46.021Z,10.58
2023-02-12T16:07:14.871Z,10.39
2023-02-12T16:09:43.152Z,10.08
2023-02-12T16:12:15.397Z,9.93
2023-02-12T16:14:47.919Z,9.72
2023-02-12T16:17:33.112Z,9.40
2023-02-12T16:20:22.004Z,9.22
2023-02-12T16:22:51.381Z,8.93
2023-02-12T16:25:28.527Z,8.61
2023-02-12T16:28:02.922Z,8.37
2023-02-12T16:30:31.835Z,8.17
2023-02-12T16:32:59.940Z,8.03
2023-02-12T16:35:32.756Z,7.88
2023-02-12T16:38:39.076Z,7.70
2023-02-12T16:41:18.109Z,7.50
2023-02-12T16:44:01.241Z,7.43
2023-02-12T16:46:31.698Z,7.32
2023-02-12T16:49:01.253Z,7.26
2023-02-12T16:51:31.933Z,7.12
2023-02-12T16:54:01.541Z,6.96
2023-02-12T16:56:37.797Z,6.83
2023-02-12T16:59:05.033Z,6.68
2023-02-12T17:01:36.444Z,6.59
2023-02-12T17:04:13.313Z,6.49
2023-02-12T17:06:40.434Z,6.45
2023-02-12T17:09:07.600Z,6.37
2023-02-12T17:11:34.722Z,6.25
2023-02-12T17:14:01.813Z,6.17
2023-02-12T17:16:31.368Z,6.10
2023-02-12T17:19:00.041Z,5.99
2023-02-12T17:21:31.853Z,5.93
2023-02-12T17:23:59.125Z,5.88
2023-02-12T17:26:26.233Z,5.81
2023-02-12T17:28:53.342Z,5.77
2023-02-12T17:31:20.794Z,5.63
2023-02-12T17:33:48.150Z,5.45
2023-02-12T17:36:15.240Z,5.37
2023-02-12T17:38:42.327Z,5.37
2023-02-12T17:41:10.921Z,5.34
2023-02-12T17:43:38.463Z,5.41
2023-02-12T17:46:11.260Z,5.33
2023-02-12T17:48:38.514Z,5.21
2023-02-12T17:51:06.042Z,5.13
2023-02-12T17:53:33.129Z,4.93
2023-02-12T17:56:00.446Z,4.75
2023-02-12T17:58:27.670Z,4.71
2023-02-12T18:00:55.857Z,4.62
2023-02-12T18:03:23.324Z,4.51
2023-02-12T18:05:50.406Z,4.49
2023-02-12T18:08:17.651Z,4.42
2023-02-12T18:10:45.144Z,4.38
2023-02-12T18:13:13.958Z,4.41
2023-02-12T18:15:41.399Z,4.36
2023-02-12T18:18:09.301Z,4.36
2023-02-12T18:20:36.560Z,4.39
2023-02-12T18:23:04.511Z,4.39
2023-02-12T18:25:31.572Z,4.40
2023-02-12T18:28:01.222Z,4.36
2023-02-12T18:30:28.662Z,4.35
2023-02-12T18:32:55.780Z,4.33
2023-02-12T18:35:22.847Z,4.26
2023-02-12T18:37:50.436Z,4.16
2023-02-12T18:40:17.659Z,4.05
2023-02-12T18:42:45.030Z,4.00
2023-02-12T18:45:12.228Z,3.84
2023-02-12T18:47:39.345Z,3.69
2023-02-12T18:50:07.073Z,3.54
2023-02-12T18:52:34.200Z,3.41
2023-02-12T18:55:01.265Z,3.30
2023-02-12T18:57:29.614Z,3.28
2023-02-12T18:59:56.860Z,3.29
2023-02-12T19:02:24.188Z,3.39
2023-02-12T19:04:51.390Z,3.40
2023-02-12T19:07:18.525Z,3.40
2023-02-12T19:09:45.850Z,3.29
2023-02-12T19:12:12.984Z,3.23
2023-02-12T19:14:40.048Z,3.24
2023-02-12T19:17:07.110Z,3.30
2023-02-12T19:19:34.283Z,3.18
2023-02-12T19:22:01.389Z,3.20
2023-02-12T19:24:40.889Z,3.15
2023-02-12T19:27:11.758Z,3.01
2023-02-12T19:29:38.837Z,2.90
2023-02-12T19:32:05.994Z,2.73
2023-02-12T19:34:33.126Z,2.59
2023-02-12T19:37:00.185Z,2.55
2023-02-12T19:39:27.576Z,2.55
2023-02-12T19:41:56.154Z,2.48
2023-02-12T19:44:24.996Z,2.66
2023-02-12T19:46:52.646Z,2.53
2023-02-12T19:49:25.912Z,2.49
2023-02-12T19:51:53.664Z,2.43
2023-02-12T19:54:22.976Z,2.26
2023-02-12T19:56:51.720Z,2.31
2023-02-12T19:59:21.529Z,2.24
2023-02-12T20:01:49.685Z,2.28
2023-02-12T20:04:20.139Z,2.19
2023-02-12T20:06:50.779Z,2.17
2023-02-12T20:09:19.441Z,2.24
2023-02-12T20:11:46.846Z,2.27
2023-02-12T20:14:14.500Z,2.24
2023-02-12T20:16:43.758Z,2.14
2023-02-12T20:19:13.006Z,2.04
2023-02-12T20:21:40.731Z,1.97
2023-02-12T20:24:08.161Z,1.98
2023-02-12T20:26:35.731Z,1.94
2023-02-12T20:29:05.197Z,1.95
2023-02-12T20:31:36.051Z,1.94
2023-02-12T20:34:10.809Z,1.87
2023-02-12T20:36:39.789Z,1.82
2023-02-12T20:39:09.660Z,1.82
2023-02-12T20:41:37.235Z,1.76
2023-02-12T20:44:07.681Z,1.72
2023-02-12T20:46:39.531Z,1.74
2023-02-12T20:49:06.845Z,1.66
2023-02-12T20:51:34.342Z,1.59
2023-02-12T20:54:02.587Z,1.65
2023-02-12T20:56:32.112Z,1.49
2023-02-12T20:59:00.108Z,1.36
2023-02-12T21:01:34.565Z,1.24
2023-02-12T21:04:05.109Z,1.20
2023-02-12T21:06:32.955Z,1.24
2023-02-12T21:09:00.068Z,1.35
2023-02-12T21:11:28.701Z,1.29
2023-02-12T21:13:59.336Z,1.25
2023-02-12T21:16:32.333Z,1.20
2023-02-12T21:18:59.776Z,1.36
2023-02-12T21:21:29.745Z,1.23
2023-02-12T21:23:58.257Z,1.30
2023-02-12T21:26:27.007Z,1.25
2023-02-12T21:28:56.352Z,1.18
2023-02-12T21:31:29.305Z,1.10
2023-02-12T21:33:58.252Z,1.06
2023-02-12T21:36:28.352Z,1.01
2023-02-12T21:38:55.779Z,1.04
2023-02-12T21:41:28.428Z,0.97
2023-02-12T21:44:10.096Z,0.93
2023-02-12T21:46:37.539Z,0.92
2023-02-12T21:49:05.133Z,0.96
2023-02-12T21:51:37.924Z,0.84
2023-02-12T21:54:10.664Z,0.70
2023-02-12T21:56:40.173Z,0.77
2023-02-12T21:59:08.626Z,0.68
2023-02-12T22:01:38.104Z,0.57
2023-02-12T22:04:06.767Z,0.46
2023-02-12T22:06:40.844Z,0.32
2023-02-12T22:09:09.382Z,0.25
2023-02-12T22:11:37.675Z,0.02
2023-02-12T22:14:07.158Z,-0.01
2023-02-12T22:16:35.863Z,0.04
2023-02-12T22:19:03.944Z,0.06
2023-02-12T22:21:34.264Z,-0.04
2023-02-12T22:24:03.260Z,-0.08
2023-02-12T22:26:31.828Z,-0.18
2023-02-12T22:29:02.293Z,-0.28
2023-02-12T22:31:32.261Z,-0.38
2023-02-12T22:34:08.393Z,-0.46
2023-02-12T22:36:36.798Z,-0.42
2023-02-12T22:39:05.037Z,-0.35
2023-02-12T22:41:32.361Z,-0.40
2023-02-12T22:44:00.850Z,-0.28
2023-02-12T22:46:28.130Z,-0.22
2023-02-12T22:48:55.406Z,-0.22
2023-02-12T22:51:25.597Z,-0.22
2023-02-12T22:53:53.024Z,-0.23
2023-02-12T22:56:20.434Z,-0.23
2023-02-12T22:58:48.047Z,-0.20
2023-02-12T23:01:18.369Z,-0.15
2023-02-12T23:03:45.996Z,-0.13
2023-02-12T23:06:15.513Z,-0.13
2023-02-12T23:08:43.263Z,-0.12
2023-02-12T23:11:11.195Z,-0.07
2023-02-12T23:13:38.628Z,-0.06
2023-02-12T23:16:05.842Z,-0.07
2023-02-12T23:18:33.337Z,-0.06
2023-02-12T23:21:01.330Z,-0.03
2023-02-12T23:23:28.683Z,-0.02
2023-02-12T23:25:56.249Z,0.02
2023-02-12T23:28:23.668Z,0.06
2023-02-12T23:30:52.061Z,0.12
2023-02-12T23:33:20.185Z,0.11
2023-02-12T23:35:48.230Z,0.13
2023-02-12T23:38:15.927Z,0.17
2023-02-12T23:40:43.643Z,0.15
2023-02-12T23:43:11.004Z,0.09
2023-02-12T23:45:38.289Z,0.11
2023-02-12T23:48:05.670Z,0.15
2023-02-12T23:50:32.822Z,0.17
2023-02-12T23:53:00.046Z,0.15
2023-02-12T23:55:27.211Z,0.13
2023-02-12T23:57:54.399Z,0.07
